createdAt,value
2019-05-21T00:03:02.957Z,68.96
2019-05-21T00:06:09.381Z,68.71
2019-05-21T00:09:15.675Z,68.97
2019-05-21T00:12:22.072Z,69.34
2019-05-21T00:15:28.507Z,70.08
2019-05-21T00:18:34.968Z,70.29
2019-05-21T00:21:41.395Z,69.24
2019-05-21T00:24:48.029Z,70.40
2019-05-21T00:27:59.784Z,69.79
2019-05-21T00:31:44.011Z,70.20
2019-05-21T00:35:28.629Z,69.52
2019-05-21T00:39:11.534Z,70.53
2019-05-21T00:42:28.609Z,70.70
2019-05-21T00:45:34.903Z,69.97
2019-05-21T00:48:41.317Z,70.21
2019-05-21T00:51:47.915Z,70.06
2019-05-21T00:54:54.797Z,70.02
2019-05-21T00:58:01.553Z,70.03
2019-05-21T01:01:08.114Z,70.00
2019-05-21T01:04:15.701Z,70.68
2019-05-21T01:07:23.149Z,70.78
2019-05-21T01:10:29.713Z,70.32
2019-05-21T01:13:36.563Z,70.96
2019-05-21T01:16:43.193Z,70.91
2019-05-21T01:19:49.581Z,70.94
2019-05-21T01:22:55.980Z,70.87
2019-05-21T01:26:02.583Z,71.47
2019-05-21T01:29:09.139Z,71.57
2019-05-21T01:32:15.510Z,70.97
2019-05-21T01:35:22.069Z,70.88
2019-05-21T01:38:29.511Z,70.41
2019-05-21T01:41:35.996Z,71.58
2019-05-21T01:44:42.425Z,70.84
2019-05-21T01:47:49.113Z,71.75
2019-05-21T01:50:55.456Z,72.26
2019-05-21T01:54:03.026Z,71.46
2019-05-21T01:57:09.366Z,71.59
2019-05-21T02:00:15.912Z,72.45
2019-05-21T02:03:22.520Z,72.07
2019-05-21T02:06:29.153Z,72.73
2019-05-21T02:09:55.507Z,72.73
2019-05-21T02:13:01.935Z,72.04
2019-05-21T02:16:08.268Z,72.33
2019-05-21T02:19:14.786Z,71.96
2019-05-21T02:22:21.223Z,71.61
2019-05-21T02:25:27.572Z,72.85
2019-05-21T02:28:33.917Z,72.30
2019-05-21T02:31:40.456Z,72.51
2019-05-21T02:34:46.984Z,72.32
2019-05-21T02:37:53.335Z,72.96
2019-05-21T02:40:59.692Z,72.53
2019-05-21T02:44:24.266Z,72.49
2019-05-21T02:47:30.753Z,72.36
2019-05-21T02:50:37.288Z,72.46
2019-05-21T02:53:44.583Z,72.56
2019-05-21T02:56:51.078Z,72.90
2019-05-21T02:59:59.144Z,72.50
2019-05-21T03:03:06.481Z,72.71
2019-05-21T03:06:15.076Z,72.47
2019-05-21T03:09:21.977Z,72.82
2019-05-21T03:12:28.439Z,72.41
2019-05-21T03:15:34.868Z,73.11
2019-05-21T03:18:41.232Z,73.11
2019-05-21T03:21:47.664Z,72.62
2019-05-21T03:24:54.076Z,72.62
2019-05-21T03:28:00.533Z,72.91
2019-05-21T03:31:06.886Z,73.26
2019-05-21T03:34:13.331Z,72.10
2019-05-21T03:37:19.897Z,72.76
2019-05-21T03:40:26.368Z,72.19
2019-05-21T03:43:32.633Z,72.79
2019-05-21T03:46:39.107Z,73.19
2019-05-21T03:49:45.474Z,72.51
2019-05-21T03:52:52.974Z,72.82
2019-05-21T03:55:59.313Z,72.82
2019-05-21T03:59:06.002Z,72.84
2019-05-21T04:02:12.408Z,72.20
2019-05-21T04:05:24.918Z,73.33
2019-05-21T04:08:31.319Z,73.51
2019-05-21T04:11:37.938Z,73.32
2019-05-21T04:14:50.762Z,73.17
2019-05-21T04:18:02.962Z,73.28
2019-05-21T04:21:09.337Z,73.48
2019-05-21T04:24:15.797Z,73.18
2019-05-21T04:27:22.340Z,73.56
2019-05-21T04:30:28.780Z,73.27
2019-05-21T04:33:35.059Z,73.27
2019-05-21T04:36:41.522Z,73.58
2019-05-21T04:39:47.931Z,73.42
2019-05-21T04:42:54.320Z,72.87
2019-05-21T04:46:00.561Z,73.40
2019-05-21T04:49:07.039Z,73.21
2019-05-21T04:52:13.394Z,73.01
2019-05-21T04:55:20.030Z,73.23
2019-05-21T04:58:26.428Z,73.12
2019-05-21T05:01:32.997Z,73.06
2019-05-21T05:04:39.407Z,72.91
2019-05-21T05:07:46.263Z,72.85
2019-05-21T05:10:52.945Z,72.86
2019-05-21T05:13:59.562Z,72.86
2019-05-21T05:17:06.073Z,72.80
2019-05-21T05:20:12.726Z,72.66
2019-05-21T05:23:19.046Z,71.66
2019-05-21T05:26:27.595Z,73.06
2019-05-21T05:29:34.066Z,72.57
2019-05-21T05:32:51.375Z,72.37
2019-05-21T05:35:57.741Z,72.50
2019-05-21T05:39:05.696Z,71.52
2019-05-21T05:42:12.247Z,72.21
2019-05-21T05:45:18.948Z,72.28
2019-05-21T05:48:25.806Z,72.08
2019-05-21T05:51:32.974Z,72.19
2019-05-21T05:54:40.515Z,71.62
2019-05-21T05:57:46.905Z,71.65
2019-05-21T06:00:53.286Z,71.82
2019-05-21T06:03:59.932Z,71.62
2019-05-21T06:07:06.338Z,71.22
2019-05-21T06:10:13.938Z,71.68
2019-05-21T06:13:20.537Z,71.09
2019-05-21T06:16:27.840Z,71.00
2019-05-21T06:19:34.256Z,71.16
2019-05-21T06:22:40.952Z,71.05
2019-05-21T06:25:47.298Z,70.51
2019-05-21T06:28:53.649Z,69.72
2019-05-21T06:32:00.281Z,70.02
2019-05-21T06:35:07.013Z,70.59
2019-05-21T06:38:17.844Z,70.19
2019-05-21T06:41:21.644Z,69.95
2019-05-21T06:44:28.218Z,69.54
2019-05-21T06:47:34.655Z,68.80
2019-05-21T06:50:41.023Z,68.58
2019-05-21T06:53:47.389Z,68.79
2019-05-21T06:56:53.963Z,68.79
2019-05-21T07:00:00.588Z,68.97
2019-05-21T07:03:07.039Z,68.41
2019-05-21T07:06:14.402Z,68.30
2019-05-21T07:09:20.901Z,68.33
2019-05-21T07:12:27.632Z,67.81
2019-05-21T07:15:34.503Z,67.94
2019-05-21T07:18:41.650Z,67.48
2019-05-21T07:21:48.326Z,66.56
2019-05-21T07:24:54.819Z,66.89
2019-05-21T07:28:01.169Z,66.89
2019-05-21T07:31:07.638Z,66.46
2019-05-21T07:34:14.180Z,65.45
2019-05-21T07:37:20.886Z,65.00
2019-05-21T07:40:27.338Z,64.76
2019-05-21T07:43:33.863Z,64.67
2019-05-21T07:46:40.578Z,64.11
2019-05-21T07:49:47.049Z,63.61
2019-05-21T07:52:53.386Z,64.31
2019-05-21T07:56:00.618Z,63.25
2019-05-21T07:59:07.110Z,62.32
2019-05-21T08:02:13.544Z,62.57
2019-05-21T08:05:21.069Z,61.39
2019-05-21T08:08:28.560Z,62.00
2019-05-21T08:11:35.062Z,60.56
2019-05-21T08:14:41.738Z,60.56
2019-05-21T08:17:48.908Z,59.87
2019-05-21T08:20:55.396Z,59.17
2019-05-21T08:24:03.076Z,58.93
2019-05-21T08:27:09.449Z,59.14
2019-05-21T08:30:16.047Z,57.84
2019-05-21T08:33:22.480Z,57.29
2019-05-21T08:36:29.080Z,57.29
2019-05-21T08:39:35.540Z,57.99
2019-05-21T08:42:41.895Z,57.48
2019-05-21T08:45:48.382Z,57.36
2019-05-21T08:48:54.987Z,56.20
2019-05-21T08:52:01.487Z,55.54
2019-05-21T08:55:08.107Z,56.37
2019-05-21T08:58:14.721Z,56.52
2019-05-21T09:01:21.223Z,56.12
2019-05-21T09:04:45.405Z,55.67
2019-05-21T09:07:36.229Z,55.83
2019-05-21T09:10:43.526Z,56.65
2019-05-21T09:13:50.091Z,56.64
2019-05-21T09:16:56.698Z,56.67
2019-05-21T09:20:03.413Z,56.93
2019-05-21T09:23:09.986Z,55.91
2019-05-21T09:26:16.482Z,56.58
2019-05-21T09:29:23.264Z,56.15
2019-05-21T09:32:29.714Z,56.19
2019-05-21T09:35:36.268Z,55.96
2019-05-21T09:38:42.820Z,56.07
2019-05-21T09:41:49.309Z,56.76
2019-05-21T09:44:55.736Z,56.71
2019-05-21T09:48:02.295Z,56.86
2019-05-21T09:51:08.780Z,56.16
2019-05-21T09:54:15.277Z,56.40
2019-05-21T09:57:28.922Z,55.99
2019-05-21T10:00:56.988Z,55.96
2019-05-21T10:04:03.729Z,54.04
2019-05-21T10:07:10.487Z,54.81
2019-05-21T10:10:17.024Z,55.59
2019-05-21T10:13:23.551Z,55.10
2019-05-21T10:16:30.058Z,54.04
2019-05-21T10:19:36.859Z,54.36
2019-05-21T10:22:43.506Z,52.03
2019-05-21T10:25:50.406Z,52.41
2019-05-21T10:28:56.833Z,53.05
2019-05-21T10:32:03.339Z,52.81
2019-05-21T10:35:09.764Z,52.77
2019-05-21T10:38:16.302Z,51.41
2019-05-21T10:41:22.885Z,51.44
2019-05-21T10:44:29.494Z,52.85
2019-05-21T10:47:35.963Z,51.00
2019-05-21T10:50:42.395Z,52.27
2019-05-21T10:53:49.106Z,52.27
2019-05-21T10:56:55.578Z,50.43
2019-05-21T11:00:02.229Z,50.33
2019-05-21T11:03:13.782Z,50.33
2019-05-21T11:06:20.419Z,51.61
2019-05-21T11:09:27.024Z,51.04
2019-05-21T11:12:33.465Z,52.37
2019-05-21T11:15:40.022Z,50.46
2019-05-21T11:18:46.578Z,50.91
2019-05-21T11:21:53.351Z,51.37
2019-05-21T11:25:00.023Z,51.49
2019-05-21T11:28:06.588Z,50.61
2019-05-21T11:31:13.181Z,49.26
2019-05-21T11:34:19.769Z,50.08
2019-05-21T11:37:26.219Z,50.68
2019-05-21T11:40:32.797Z,49.54
2019-05-21T11:43:39.346Z,50.82
2019-05-21T11:46:45.930Z,50.15
2019-05-21T11:49:52.364Z,50.31
2019-05-21T11:52:58.875Z,48.19
2019-05-21T11:56:05.388Z,47.60
2019-05-21T11:59:11.894Z,47.68
2019-05-21T12:02:18.352Z,47.63
2019-05-21T12:05:24.871Z,47.74
2019-05-21T12:08:31.346Z,47.04
2019-05-21T12:11:38.067Z,47.04
2019-05-21T12:14:44.597Z,47.00
2019-05-21T12:17:51.088Z,47.00
2019-05-21T12:20:57.512Z,46.54
2019-05-21T12:24:04.158Z,46.80
2019-05-21T12:27:10.730Z,46.64
2019-05-21T12:30:17.583Z,46.97
2019-05-21T12:33:24.152Z,45.52
2019-05-21T12:36:30.539Z,45.10
2019-05-21T12:39:36.902Z,45.86
2019-05-21T12:42:43.435Z,45.05
2019-05-21T12:45:50.043Z,44.70
2019-05-21T12:48:56.668Z,44.74
2019-05-21T12:52:03.204Z,44.33
2019-05-21T12:55:09.788Z,43.89
2019-05-21T12:58:16.474Z,44.00
2019-05-21T13:01:23.092Z,44.00
2019-05-21T13:04:29.643Z,43.91
2019-05-21T13:07:36.239Z,44.65
2019-05-21T13:10:42.744Z,43.58
2019-05-21T13:13:49.139Z,44.45
2019-05-21T13:16:55.613Z,43.41
2019-05-21T13:20:02.689Z,43.50
2019-05-21T13:23:11.279Z,42.30
2019-05-21T13:26:18.675Z,42.26
2019-05-21T13:29:25.384Z,42.32
2019-05-21T13:32:31.938Z,42.95
2019-05-21T13:35:38.565Z,42.97
2019-05-21T13:38:45.408Z,43.42
2019-05-21T13:41:52.987Z,42.41
2019-05-21T13:44:59.622Z,42.59
2019-05-21T13:48:06.206Z,42.07
2019-05-21T13:51:12.682Z,42.45
2019-05-21T13:54:19.207Z,41.89
2019-05-21T13:57:25.741Z,41.87
2019-05-21T14:00:45.433Z,41.87
2019-05-21T14:03:51.981Z,41.87
2019-05-21T14:06:58.479Z,41.45
2019-05-21T14:10:16.766Z,41.51
2019-05-21T14:13:13.500Z,41.68
2019-05-21T14:16:20.262Z,41.55
2019-05-21T14:19:26.858Z,41.63
2019-05-21T14:22:36.587Z,41.42
2019-05-21T14:25:44.266Z,41.35
2019-05-21T14:28:51.177Z,41.46
2019-05-21T14:31:57.929Z,41.40
2019-05-21T14:35:04.501Z,41.48
2019-05-21T14:38:12.087Z,41.90
2019-05-21T14:41:18.776Z,42.28
2019-05-21T14:44:25.217Z,43.33
2019-05-21T14:47:31.650Z,42.65
2019-05-21T14:50:38.221Z,42.84
2019-05-21T14:53:44.673Z,42.42
2019-05-21T14:56:51.143Z,42.79
2019-05-21T14:59:57.707Z,42.71
2019-05-21T15:03:04.313Z,42.71
2019-05-21T15:06:10.771Z,42.54
2019-05-21T15:09:17.526Z,42.64
2019-05-21T15:12:24.111Z,43.07
2019-05-21T15:15:30.744Z,42.98
2019-05-21T15:18:37.260Z,43.32
2019-05-21T15:21:49.004Z,42.96
2019-05-21T15:24:55.914Z,43.49
2019-05-21T15:28:03.434Z,43.73
2019-05-21T15:31:10.255Z,43.38
2019-05-21T15:34:16.786Z,44.31
2019-05-21T15:37:23.387Z,42.81
2019-05-21T15:40:29.923Z,43.06
2019-05-21T15:43:36.393Z,42.98
2019-05-21T15:46:49.828Z,42.54
2019-05-21T15:49:50.986Z,42.57
2019-05-21T15:52:57.526Z,42.46
2019-05-21T15:56:04.005Z,42.66
2019-05-21T15:59:10.423Z,42.26
2019-05-21T16:02:17.042Z,42.66
2019-05-21T16:05:23.480Z,42.78
2019-05-21T16:08:30.093Z,42.98
2019-05-21T16:11:36.698Z,43.10
2019-05-21T16:14:43.157Z,43.23
2019-05-21T16:17:49.663Z,43.23
2019-05-21T16:20:56.468Z,43.43
2019-05-21T16:24:03.091Z,43.39
2019-05-21T16:27:09.542Z,43.59
2019-05-21T16:30:16.140Z,43.21
2019-05-21T16:33:23.872Z,43.78
2019-05-21T16:36:30.564Z,43.68
2019-05-21T16:39:36.945Z,43.92
2019-05-21T16:42:43.579Z,44.24
2019-05-21T16:45:50.065Z,44.56
2019-05-21T16:48:56.408Z,44.62
2019-05-21T16:52:03.157Z,44.81
2019-05-21T16:55:11.806Z,45.21
2019-05-21T16:58:18.312Z,45.51
2019-05-21T17:01:25.004Z,45.69
2019-05-21T17:04:31.358Z,46.32
2019-05-21T17:07:37.845Z,46.35
2019-05-21T17:10:45.417Z,46.82
2019-05-21T17:13:51.763Z,47.25
2019-05-21T17:16:58.457Z,47.52
2019-05-21T17:20:06.146Z,47.81
2019-05-21T17:23:12.581Z,47.91
2019-05-21T17:26:18.923Z,48.59
2019-05-21T17:29:25.789Z,48.59
2019-05-21T17:32:32.500Z,49.11
2019-05-21T17:35:39.326Z,49.38
2019-05-21T17:38:46.087Z,49.86
2019-05-21T17:41:52.749Z,49.87
2019-05-21T17:45:01.925Z,50.39
2019-05-21T17:48:08.424Z,50.33
2019-05-21T17:51:18.359Z,50.43
2019-05-21T17:55:21.996Z,51.17
2019-05-21T17:57:47.635Z,51.31
2019-05-21T18:01:00.208Z,51.63
2019-05-21T18:04:06.728Z,51.91
2019-05-21T18:07:16.284Z,52.12
2019-05-21T18:10:23.018Z,52.47
2019-05-21T18:13:29.710Z,52.70
2019-05-21T18:16:38.810Z,52.62
2019-05-21T18:19:46.034Z,53.30
2019-05-21T18:22:54.206Z,53.30
2019-05-21T18:26:00.654Z,53.56
2019-05-21T18:29:08.203Z,53.79
2019-05-21T18:32:14.747Z,54.12
2019-05-21T18:35:22.704Z,54.05
2019-05-21T18:38:30.438Z,54.14
2019-05-21T18:41:37.185Z,54.61
2019-05-21T18:44:43.790Z,54.59
2019-05-21T18:47:50.260Z,54.93
2019-05-21T18:50:56.779Z,54.93
2019-05-21T18:54:05.972Z,55.32
2019-05-21T18:57:12.640Z,56.22
2019-05-21T19:00:19.907Z,56.19
2019-05-21T19:03:28.046Z,56.84
2019-05-21T19:06:36.436Z,56.33
2019-05-21T19:09:45.878Z,56.97
2019-05-21T19:12:52.355Z,57.02
2019-05-21T19:16:00.149Z,56.91
2019-05-21T19:19:06.571Z,56.84
2019-05-21T19:22:17.993Z,56.84
2019-05-21T19:25:24.537Z,56.89
2019-05-21T19:28:31.144Z,57.33
2019-05-21T19:31:37.721Z,57.42
2019-05-21T19:34:44.220Z,58.14
2019-05-21T19:37:55.009Z,57.60
2019-05-21T19:41:04.346Z,57.93
2019-05-21T19:44:10.818Z,58.15
2019-05-21T19:47:17.335Z,59.46
2019-05-21T19:50:23.956Z,59.45
2019-05-21T19:53:32.207Z,59.79
2019-05-21T19:56:38.765Z,59.83
2019-05-21T19:59:51.544Z,59.72
2019-05-21T20:02:57.667Z,60.05
2019-05-21T20:06:04.611Z,60.34
2019-05-21T20:09:14.765Z,60.67
2019-05-21T20:12:21.975Z,61.36
2019-05-21T20:15:30.039Z,61.36
2019-05-21T20:18:37.622Z,61.13
2019-05-21T20:21:46.859Z,61.35
2019-05-21T20:24:53.335Z,61.35
2019-05-21T20:28:00.543Z,61.72
2019-05-21T20:31:08.210Z,61.95
2019-05-21T20:34:14.806Z,62.27
2019-05-21T20:37:26.340Z,61.71
2019-05-21T20:40:32.868Z,61.71
2019-05-21T20:43:40.127Z,62.66
2019-05-21T20:46:46.748Z,62.68
2019-05-21T20:49:53.950Z,63.07
2019-05-21T20:53:00.460Z,63.04
2019-05-21T20:56:07.947Z,63.61
2019-05-21T20:59:14.511Z,62.82
2019-05-21T21:02:20.989Z,62.82
2019-05-21T21:05:27.635Z,62.93
2019-05-21T21:08:36.545Z,63.13
2019-05-21T21:11:43.223Z,63.16
2019-05-21T21:14:50.650Z,62.99
2019-05-21T21:17:59.134Z,62.59
2019-05-21T21:21:05.987Z,63.49
2019-05-21T21:24:13.289Z,62.78
2019-05-21T21:27:20.099Z,63.59
2019-05-21T21:30:27.753Z,63.81
2019-05-21T21:33:34.464Z,64.35
2019-05-21T21:36:40.858Z,63.98
2019-05-21T21:39:47.481Z,64.16
2019-05-21T21:42:54.080Z,64.17
2019-05-21T21:46:00.679Z,64.80
2019-05-21T21:49:09.250Z,64.67
2019-05-21T21:52:16.449Z,63.99
2019-05-21T21:55:22.889Z,64.07
2019-05-21T21:58:29.376Z,64.65
2019-05-21T22:02:10.344Z,64.57
2019-05-21T22:05:17.142Z,64.67
2019-05-21T22:08:24.236Z,65.23
2019-05-21T22:11:31.025Z,65.23
2019-05-21T22:14:50.385Z,64.52
2019-05-21T22:17:47.035Z,64.71
2019-05-21T22:20:53.928Z,65.10
2019-05-21T22:24:00.495Z,64.72
2019-05-21T22:27:07.028Z,64.46
2019-05-21T22:30:13.879Z,64.24
2019-05-21T22:33:21.055Z,64.21
2019-05-21T22:36:27.515Z,65.04
2019-05-21T22:39:34.131Z,65.04
2019-05-21T22:42:41.066Z,65.45
2019-05-21T22:45:47.594Z,65.29
2019-05-21T22:48:54.495Z,65.37
2019-05-21T22:52:01.284Z,65.59
2019-05-21T22:55:07.891Z,65.76
2019-05-21T22:58:15.419Z,66.44
2019-05-21T23:01:24.023Z,65.47
2019-05-21T23:04:30.552Z,65.23
2019-05-21T23:07:38.641Z,64.81
2019-05-21T23:10:45.282Z,65.48
2019-05-21T23:13:51.771Z,65.64
2019-05-21T23:17:00.211Z,66.19
2019-05-21T23:20:10.163Z,65.68
2019-05-21T23:23:19.324Z,66.07
2019-05-21T23:26:25.893Z,65.38
2019-05-21T23:29:32.357Z,66.16
2019-05-21T23:32:39.012Z,66.24
2019-05-21T23:35:45.827Z,67.37
2019-05-21T23:38:52.784Z,67.37
2019-05-21T23:41:59.610Z,65.95
2019-05-21T23:45:08.024Z,66.33
2019-05-21T23:48:16.061Z,66.02
2019-05-21T23:51:22.873Z,66.03
2019-05-21T23:54:29.479Z,67.52
2019-05-21T23:57:37.163Z,67.24
